sensor_id;sensor_type;location;lat;lon;timestamp;pressure;altitude;pressure_sealevel;temperature;humidity
10940;BME280;5522;42.696;23.494;2024-02-26T00:02:15;53795.50;;;-139.68;100.00
10940;BME280;5522;42.696;23.494;2024-02-26T00:04:42;53767.38;;;-139.68;100.00
10940;BME280;5522;42.696;23.494;2024-02-26T00:07:09;53783.44;;;-139.68;100.00
10940;BME280;5522;42.696;23.494;2024-02-26T00:09:35;53743.25;;;-139.68;100.00
10940;BME280;5522;42.696;23.494;2024-02-26T00:12:04;53719.13;;;-139.68;100.00
10940;BME280;5522;42.696;23.494;2024-02-26T00:14:31;53771.38;;;-139.68;100.00
10940;BME280;5522;42.696;23.494;2024-02-26T00:16:58;53795.50;;;-139.68;100.00
10940;BME280;5522;42.696;23.494;2024-02-26T00:19:24;53803.56;;;-139.68;100.00
10940;BME280;5522;42.696;23.494;2024-02-26T00:21:51;53823.66;;;-139.68;100.00
10940;BME280;5522;42.696;23.494;2024-02-26T00:24:21;53777.41;;;-139.68;100.00
10940;BME280;5522;42.696;23.494;2024-02-26T00:26:47;53803.56;;;-139.68;100.00
10940;BME280;5522;42.696;23.494;2024-02-26T00:29:19;53747.25;;;-139.68;100.00
10940;BME280;5522;42.696;23.494;2024-02-26T00:31:47;53763.34;;;-139.68;100.00
10940;BME280;5522;42.696;23.494;2024-02-26T00:34:13;53773.41;;;-139.68;100.00
10940;BME280;5522;42.696;23.494;2024-02-26T00:36:40;53795.50;;;-139.68;100.00
10940;BME280;5522;42.696;23.494;2024-02-26T00:39:07;53797.53;;;-139.68;100.00
10940;BME280;5522;42.696;23.494;2024-02-26T00:41:38;53777.41;;;-139.68;100.00
10940;BME280;5522;42.696;23.494;2024-02-26T00:44:05;53761.34;;;-139.68;100.00
10940;BME280;5522;42.696;23.494;2024-02-26T00:46:33;53799.53;;;-139.68;100.00
10940;BME280;5522;42.696;23.494;2024-02-26T00:49:00;53767.38;;;-139.68;100.00
10940;BME280;5522;42.696;23.494;2024-02-26T00:51:27;53793.50;;;-139.68;100.00
10940;BME280;5522;42.696;23.494;2024-02-26T00:53:54;53791.50;;;-139.68;100.00
10940;BME280;5522;42.696;23.494;2024-02-26T00:56:21;53801.53;;;-139.68;100.00
10940;BME280;5522;42.696;23.494;2024-02-26T00:58:48;53793.50;;;-139.68;100.00
10940;BME280;5522;42.696;23.494;2024-02-26T01:06:48;53789.47;;;-139.68;100.00
10940;BME280;5522;42.696;23.494;2024-02-26T01:09:15;53759.31;;;-139.68;100.00
10940;BME280;5522;42.696;23.494;2024-02-26T01:11:43;53779.44;;;-139.68;100.00
10940;BME280;5522;42.696;23.494;2024-02-26T01:14:10;53829.69;;;-139.68;100.00
10940;BME280;5522;42.696;23.494;2024-02-26T01:16:37;53803.56;;;-139.68;100.00
10940;BME280;5522;42.696;23.494;2024-02-26T01:19:03;53795.50;;;-139.68;100.00
10940;BME280;5522;42.696;23.494;2024-02-26T01:21:30;53791.50;;;-139.68;100.00
10940;BME280;5522;42.696;23.494;2024-02-26T01:23:59;53773.41;;;-139.68;100.00
10940;BME280;5522;42.696;23.494;2024-02-26T01:26:25;53787.47;;;-139.68;100.00
10940;BME280;5522;42.696;23.494;2024-02-26T01:28:52;53771.38;;;-139.68;100.00
10940;BME280;5522;42.696;23.494;2024-02-26T01:31:20;53771.38;;;-139.68;100.00
10940;BME280;5522;42.696;23.494;2024-02-26T01:33:47;53753.28;;;-139.68;100.00
10940;BME280;5522;42.696;23.494;2024-02-26T01:36:13;53759.31;;;-139.68;100.00
10940;BME280;5522;42.696;23.494;2024-02-26T01:38:40;53799.53;;;-139.68;100.00
10940;BME280;5522;42.696;23.494;2024-02-26T01:41:08;53797.53;;;-139.68;100.00
10940;BME280;5522;42.696;23.494;2024-02-26T01:43:35;53795.50;;;-139.68;100.00
10940;BME280;5522;42.696;23.494;2024-02-26T01:46:03;53805.56;;;-139.68;100.00
10940;BME280;5522;42.696;23.494;2024-02-26T01:48:31;53787.47;;;-139.68;100.00
10940;BME280;5522;42.696;23.494;2024-02-26T01:50:58;53845.78;;;-139.68;100.00
10940;BME280;5522;42.696;23.494;2024-02-26T01:53:25;53799.53;;;-139.68;100.00
10940;BME280;5522;42.696;23.494;2024-02-26T01:55:52;53805.56;;;-139.68;100.00
10940;BME280;5522;42.696;23.494;2024-02-26T01:58:20;53783.44;;;-139.68;100.00
10940;BME280;5522;42.696;23.494;2024-02-26T02:00:47;53803.56;;;-139.68;100.00
10940;BME280;5522;42.696;23.494;2024-02-26T02:03:14;53767.38;;;-139.68;100.00
10940;BME280;5522;42.696;23.494;2024-02-26T02:05:41;53763.34;;;-139.68;100.00
10940;BME280;5522;42.696;23.494;2024-02-26T02:08:09;53767.38;;;-139.68;100.00
10940;BME280;5522;42.696;23.494;2024-02-26T02:10:38;53821.66;;;-139.68;100.00
10940;BME280;5522;42.696;23.494;2024-02-26T02:13:05;53821.66;;;-139.68;100.00
10940;BME280;5522;42.696;23.494;2024-02-26T02:15:33;53757.31;;;-139.68;100.00
10940;BME280;5522;42.696;23.494;2024-02-26T02:18:00;53791.50;;;-139.68;100.00
10940;BME280;5522;42.696;23.494;2024-02-26T02:20:32;53827.69;;;-139.68;100.00
10940;BME280;5522;42.696;23.494;2024-02-26T02:22:59;53775.41;;;-139.68;100.00
10940;BME280;5522;42.696;23.494;2024-02-26T02:25:26;53771.38;;;-139.68;100.00
10940;BME280;5522;42.696;23.494;2024-02-26T02:27:54;53799.53;;;-139.68;100.00
10940;BME280;5522;42.696;23.494;2024-02-26T02:30:21;53807.56;;;-139.68;100.00
10940;BME280;5522;42.696;23.494;2024-02-26T02:32:50;53807.56;;;-139.68;100.00
10940;BME280;5522;42.696;23.494;2024-02-26T02:35:17;53795.50;;;-139.68;100.00
10940;BME280;5522;42.696;23.494;2024-02-26T02:37:45;53775.41;;;-139.68;100.00
10940;BME280;5522;42.696;23.494;2024-02-26T02:40:12;53797.53;;;-139.68;100.00
10940;BME280;5522;42.696;23.494;2024-02-26T02:42:39;53773.41;;;-139.68;100.00
10940;BME280;5522;42.696;23.494;2024-02-26T02:45:06;53771.38;;;-139.68;100.00
10940;BME280;5522;42.696;23.494;2024-02-26T02:47:35;53841.75;;;-139.68;100.00
10940;BME280;5522;42.696;23.494;2024-02-26T02:50:02;53785.47;;;-139.68;100.00
10940;BME280;5522;42.696;23.494;2024-02-26T02:52:29;53819.63;;;-139.68;100.00
10940;BME280;5522;42.696;23.494;2024-02-26T02:54:58;53811.59;;;-139.68;100.00
10940;BME280;5522;42.696;23.494;2024-02-26T02:57:24;53811.59;;;-139.68;100.00
10940;BME280;5522;42.696;23.494;2024-02-26T02:59:51;53799.53;;;-139.68;100.00
10940;BME280;5522;42.696;23.494;2024-02-26T03:02:18;53805.56;;;-139.68;100.00
10940;BME280;5522;42.696;23.494;2024-02-26T03:04:45;53773.41;;;-139.68;100.00
10940;BME280;5522;42.696;23.494;2024-02-26T03:07:12;53795.50;;;-139.68;100.00
10940;BME280;5522;42.696;23.494;2024-02-26T03:09:38;53825.66;;;-139.68;100.00
10940;BME280;5522;42.696;23.494;2024-02-26T03:12:08;53757.31;;;-139.68;100.00
10940;BME280;5522;42.696;23.494;2024-02-26T03:14:35;53787.47;;;-139.68;100.00
10940;BME280;5522;42.696;23.494;2024-02-26T03:17:02;53805.56;;;-139.68;100.00
10940;BME280;5522;42.696;23.494;2024-02-26T03:19:28;53807.56;;;-139.68;100.00
10940;BME280;5522;42.696;23.494;2024-02-26T03:21:55;53799.53;;;-139.68;100.00
10940;BME280;5522;42.696;23.494;2024-02-26T03:24:22;53795.50;;;-139.68;100.00
10940;BME280;5522;42.696;23.494;2024-02-26T03:26:49;53817.63;;;-139.68;100.00
10940;BME280;5522;42.696;23.494;2024-02-26T03:29:18;53807.56;;;-139.68;100.00
10940;BME280;5522;42.696;23.494;2024-02-26T03:31:45;53791.50;;;-139.68;100.00
10940;BME280;5522;42.696;23.494;2024-02-26T03:34:12;53783.44;;;-139.68;100.00
10940;BME280;5522;42.696;23.494;2024-02-26T03:36:40;53787.47;;;-139.68;100.00
10940;BME280;5522;42.696;23.494;2024-02-26T03:39:07;53819.63;;;-139.68;100.00
10940;BME280;5522;42.696;23.494;2024-02-26T03:41:34;53789.47;;;-139.68;100.00
10940;BME280;5522;42.696;23.494;2024-02-26T03:44:01;53825.66;;;-139.68;100.00
10940;BME280;5522;42.696;23.494;2024-02-26T03:46:29;53767.38;;;-139.68;100.00
10940;BME280;5522;42.696;23.494;2024-02-26T03:48:56;53831.69;;;-139.68;100.00
10940;BME280;5522;42.696;23.494;2024-02-26T03:51:23;53813.59;;;-139.68;100.00
10940;BME280;5522;42.696;23.494;2024-02-26T03:53:50;53787.47;;;-139.68;100.00
10940;BME280;5522;42.696;23.494;2024-02-26T03:56:16;53801.53;;;-139.68;100.00
10940;BME280;5522;42.696;23.494;2024-02-26T03:58:43;53787.47;;;-139.68;100.00
10940;BME280;5522;42.696;23.494;2024-02-26T04:01:10;53807.56;;;-139.68;100.00
10940;BME280;5522;42.696;23.494;2024-02-26T04:03:38;53799.53;;;-139.68;100.00
10940;BME280;5522;42.696;23.494;2024-02-26T04:06:08;53793.50;;;-139.68;100.00
10940;BME280;5522;42.696;23.494;2024-02-26T04:08:35;53793.50;;;-139.68;100.00
10940;BME280;5522;42.696;23.494;2024-02-26T04:11:02;53825.66;;;-139.68;100.00
10940;BME280;5522;42.696;23.494;2024-02-26T04:13:32;53779.44;;;-139.68;100.00
10940;BME280;5522;42.696;23.494;2024-02-26T04:15:59;53765.34;;;-139.68;100.00
10940;BME280;5522;42.696;23.494;2024-02-26T04:18:26;53801.53;;;-139.68;100.00
10940;BME280;5522;42.696;23.494;2024-02-26T04:20:54;53787.47;;;-139.68;100.00
10940;BME280;5522;42.696;23.494;2024-02-26T04:23:22;53791.50;;;-139.68;100.00
10940;BME280;5522;42.696;23.494;2024-02-26T04:25:49;53831.69;;;-139.68;100.00
10940;BME280;5522;42.696;23.494;2024-02-26T04:28:16;53789.47;;;-139.68;100.00
10940;BME280;5522;42.696;23.494;2024-02-26T04:30:42;53793.50;;;-139.68;100.00
10940;BME280;5522;42.696;23.494;2024-02-26T04:33:09;53811.59;;;-139.68;100.00
10940;BME280;5522;42.696;23.494;2024-02-26T04:35:36;53795.50;;;-139.68;100.00
10940;BME280;5522;42.696;23.494;2024-02-26T04:38:04;53751.28;;;-139.68;100.00
10940;BME280;5522;42.696;23.494;2024-02-26T04:40:31;53767.38;;;-139.68;100.00
10940;BME280;5522;42.696;23.494;2024-02-26T04:42:58;53763.34;;;-139.68;100.00
10940;BME280;5522;42.696;23.494;2024-02-26T04:45:25;53791.50;;;-139.68;100.00
10940;BME280;5522;42.696;23.494;2024-02-26T04:47:51;53763.34;;;-139.68;100.00
10940;BME280;5522;42.696;23.494;2024-02-26T04:50:18;53765.34;;;-139.68;100.00
10940;BME280;5522;42.696;23.494;2024-02-26T04:52:45;53807.56;;;-139.68;100.00
10940;BME280;5522;42.696;23.494;2024-02-26T04:55:13;53773.41;;;-139.68;100.00
10940;BME280;5522;42.696;23.494;2024-02-26T04:57:40;53781.44;;;-139.68;100.00
10940;BME280;5522;42.696;23.494;2024-02-26T05:00:08;53797.53;;;-139.68;100.00
10940;BME280;5522;42.696;23.494;2024-02-26T05:02:35;53761.34;;;-139.68;100.00
10940;BME280;5522;42.696;23.494;2024-02-26T05:05:04;53781.44;;;-139.68;100.00
10940;BME280;5522;42.696;23.494;2024-02-26T05:07:31;53777.41;;;-139.68;100.00
10940;BME280;5522;42.696;23.494;2024-02-26T05:09:57;53787.47;;;-139.68;100.00
10940;BME280;5522;42.696;23.494;2024-02-26T05:12:26;53815.63;;;-139.68;100.00
10940;BME280;5522;42.696;23.494;2024-02-26T05:14:53;53805.56;;;-139.68;100.00
10940;BME280;5522;42.696;23.494;2024-02-26T05:17:22;53773.41;;;-139.68;100.00
10940;BME280;5522;42.696;23.494;2024-02-26T05:19:49;53807.56;;;-139.68;100.00
10940;BME280;5522;42.696;23.494;2024-02-26T05:22:16;53775.41;;;-139.68;100.00
10940;BME280;5522;42.696;23.494;2024-02-26T05:24:43;53787.47;;;-139.68;100.00
10940;BME280;5522;42.696;23.494;2024-02-26T05:27:12;53811.59;;;-139.68;100.00
10940;BME280;5522;42.696;23.494;2024-02-26T05:29:44;53771.38;;;-139.68;100.00
10940;BME280;5522;42.696;23.494;2024-02-26T05:32:10;53779.44;;;-139.68;100.00
10940;BME280;5522;42.696;23.494;2024-02-26T05:34:37;53789.47;;;-139.68;100.00
10940;BME280;5522;42.696;23.494;2024-02-26T05:37:05;53795.50;;;-139.68;100.00
10940;BME280;5522;42.696;23.494;2024-02-26T05:39:32;53787.47;;;-139.68;100.00
10940;BME280;5522;42.696;23.494;2024-02-26T05:41:59;53779.44;;;-139.68;100.00
10940;BME280;5522;42.696;23.494;2024-02-26T05:44:26;53781.44;;;-139.68;100.00
10940;BME280;5522;42.696;23.494;2024-02-26T05:46:55;53795.50;;;-139.68;100.00
10940;BME280;5522;42.696;23.494;2024-02-26T05:49:22;53803.56;;;-139.68;100.00
10940;BME280;5522;42.696;23.494;2024-02-26T05:51:48;53823.66;;;-139.68;100.00
10940;BME280;5522;42.696;23.494;2024-02-26T05:54:15;53833.72;;;-139.68;100.00
10940;BME280;5522;42.696;23.494;2024-02-26T05:56:42;53811.59;;;-139.68;100.00
10940;BME280;5522;42.696;23.494;2024-02-26T05:59:11;53751.28;;;-139.68;100.00
10940;BME280;5522;42.696;23.494;2024-02-26T06:01:37;53803.56;;;-139.68;100.00
10940;BME280;5522;42.696;23.494;2024-02-26T06:04:05;53799.53;;;-139.68;100.00
10940;BME280;5522;42.696;23.494;2024-02-26T06:06:32;53791.50;;;-139.68;100.00
10940;BME280;5522;42.696;23.494;2024-02-26T06:08:59;53849.78;;;-139.68;100.00
10940;BME280;5522;42.696;23.494;2024-02-26T06:11:26;53805.56;;;-139.68;100.00
10940;BME280;5522;42.696;23.494;2024-02-26T06:13:52;53791.50;;;-139.68;100.00
10940;BME280;5522;42.696;23.494;2024-02-26T06:16:19;53807.56;;;-139.68;100.00
10940;BME280;5522;42.696;23.494;2024-02-26T06:18:46;53755.31;;;-139.68;100.00
10940;BME280;5522;42.696;23.494;2024-02-26T06:21:14;53789.47;;;-139.68;100.00
10940;BME280;5522;42.696;23.494;2024-02-26T06:23:41;53791.50;;;-139.68;100.00
10940;BME280;5522;42.696;23.494;2024-02-26T06:26:08;53783.44;;;-139.68;100.00
10940;BME280;5522;42.696;23.494;2024-02-26T06:28:35;53835.72;;;-139.68;100.00
10940;BME280;5522;42.696;23.494;2024-02-26T06:31:05;53825.66;;;-139.68;100.00
10940;BME280;5522;42.696;23.494;2024-02-26T06:33:32;53829.69;;;-139.68;100.00
10940;BME280;5522;42.696;23.494;2024-02-26T06:35:59;53795.50;;;-139.68;100.00
10940;BME280;5522;42.696;23.494;2024-02-26T06:38:27;53811.59;;;-139.68;100.00
10940;BME280;5522;42.696;23.494;2024-02-26T06:40:54;53795.50;;;-139.68;100.00
10940;BME280;5522;42.696;23.494;2024-02-26T06:43:21;53791.50;;;-139.68;100.00
10940;BME280;5522;42.696;23.494;2024-02-26T06:45:48;53809.59;;;-139.68;100.00
10940;BME280;5522;42.696;23.494;2024-02-26T06:48:14;53809.59;;;-139.68;100.00
10940;BME280;5522;42.696;23.494;2024-02-26T06:50:41;53827.69;;;-139.68;100.00
10940;BME280;5522;42.696;23.494;2024-02-26T06:53:08;53793.50;;;-139.68;100.00
10940;BME280;5522;42.696;23.494;2024-02-26T06:55:36;53843.75;;;-139.68;100.00
10940;BME280;5522;42.696;23.494;2024-02-26T06:58:05;53819.63;;;-139.68;100.00
10940;BME280;5522;42.696;23.494;2024-02-26T07:00:32;53823.66;;;-139.68;100.00
10940;BME280;5522;42.696;23.494;2024-02-26T07:02:59;53817.63;;;-139.68;100.00
10940;BME280;5522;42.696;23.494;2024-02-26T07:05:26;53829.69;;;-139.68;100.00
10940;BME280;5522;42.696;23.494;2024-02-26T07:07:53;53795.50;;;-139.68;100.00
10940;BME280;5522;42.696;23.494;2024-02-26T07:10:20;53803.56;;;-139.68;100.00
10940;BME280;5522;42.696;23.494;2024-02-26T07:12:48;53865.88;;;-139.68;100.00
10940;BME280;5522;42.696;23.494;2024-02-26T07:15:15;53815.63;;;-139.68;100.00
10940;BME280;5522;42.696;23.494;2024-02-26T07:17:42;53795.50;;;-139.68;100.00
10940;BME280;5522;42.696;23.494;2024-02-26T07:20:13;53807.56;;;-139.68;100.00
10940;BME280;5522;42.696;23.494;2024-02-26T07:22:40;53775.41;;;-139.68;100.00
10940;BME280;5522;42.696;23.494;2024-02-26T07:25:07;53827.69;;;-139.68;100.00
10940;BME280;5522;42.696;23.494;2024-02-26T07:27:38;53831.69;;;-139.68;100.00
10940;BME280;5522;42.696;23.494;2024-02-26T07:30:07;53829.69;;;-139.68;100.00
10940;BME280;5522;42.696;23.494;2024-02-26T07:32:34;53821.66;;;-139.68;100.00
10940;BME280;5522;42.696;23.494;2024-02-26T07:35:00;53853.81;;;-139.68;100.00
10940;BME280;5522;42.696;23.494;2024-02-26T07:37:27;53811.59;;;-139.68;100.00
10940;BME280;5522;42.696;23.494;2024-02-26T07:39:54;53815.63;;;-139.68;100.00
10940;BME280;5522;42.696;23.494;2024-02-26T07:42:20;53789.47;;;-139.68;100.00
10940;BME280;5522;42.696;23.494;2024-02-26T07:44:47;53823.66;;;-139.68;100.00
10940;BME280;5522;42.696;23.494;2024-02-26T07:47:15;53823.66;;;-139.68;100.00
10940;BME280;5522;42.696;23.494;2024-02-26T07:49:42;53839.75;;;-139.68;100.00
10940;BME280;5522;42.696;23.494;2024-02-26T07:52:09;53875.94;;;-139.68;100.00
10940;BME280;5522;42.696;23.494;2024-02-26T07:54:36;53827.69;;;-139.68;100.00
10940;BME280;5522;42.696;23.494;2024-02-26T07:57:03;53823.66;;;-139.68;100.00
10940;BME280;5522;42.696;23.494;2024-02-26T07:59:30;53827.69;;;-139.68;100.00
10940;BME280;5522;42.696;23.494;2024-02-26T08:01:57;53843.75;;;-139.68;100.00
10940;BME280;5522;42.696;23.494;2024-02-26T08:04:25;53853.81;;;-139.68;100.00
10940;BME280;5522;42.696;23.494;2024-02-26T08:06:52;53847.78;;;-139.68;100.00
10940;BME280;5522;42.696;23.494;2024-02-26T08:09:19;53843.75;;;-139.68;100.00
10940;BME280;5522;42.696;23.494;2024-02-26T08:11:46;53843.75;;;-139.68;100.00
10940;BME280;5522;42.696;23.494;2024-02-26T08:14:13;53851.81;;;-139.68;100.00
10940;BME280;5522;42.696;23.494;2024-02-26T08:16:39;53825.66;;;-139.68;100.00
10940;BME280;5522;42.696;23.494;2024-02-26T08:19:06;53857.84;;;-139.68;100.00
10940;BME280;5522;42.696;23.494;2024-02-26T08:21:36;53883.97;;;-139.68;99.26
10940;BME280;5522;42.696;23.494;2024-02-26T08:24:04;53861.84;;;-139.68;99.61
10940;BME280;5522;42.696;23.494;2024-02-26T08:26:31;53851.81;;;-139.68;98.09
10940;BME280;5522;42.696;23.494;2024-02-26T08:28:57;53867.88;;;-139.68;96.66
10940;BME280;5522;42.696;23.494;2024-02-26T08:31:24;53829.69;;;-139.68;98.84
10940;BME280;5522;42.696;23.494;2024-02-26T08:33:52;53853.81;;;-139.68;97.82
10940;BME280;5522;42.696;23.494;2024-02-26T08:36:19;53888.00;;;-139.68;100.00
10940;BME280;5522;42.696;23.494;2024-02-26T08:38:47;53865.88;;;-139.68;100.00
10940;BME280;5522;42.696;23.494;2024-02-26T08:41:14;53867.88;;;-139.68;97.73
10940;BME280;5522;42.696;23.494;2024-02-26T08:43:41;53853.81;;;-139.68;97.57
10940;BME280;5522;42.696;23.494;2024-02-26T08:46:08;53888.00;;;-139.68;92.77
10940;BME280;5522;42.696;23.494;2024-02-26T08:48:35;53845.78;;;-139.68;93.50
10940;BME280;5522;42.696;23.494;2024-02-26T08:51:05;53881.97;;;-139.68;92.30
10940;BME280;5522;42.696;23.494;2024-02-26T08:53:32;53855.81;;;-139.68;92.16
10940;BME280;5522;42.696;23.494;2024-02-26T08:56:01;53861.84;;;-139.68;91.20
10940;BME280;5522;42.696;23.494;2024-02-26T08:58:28;53855.81;;;-139.68;89.46
10940;BME280;5522;42.696;23.494;2024-02-26T09:00:55;53847.78;;;-139.68;88.81
10940;BME280;5522;42.696;23.494;2024-02-26T09:03:22;53867.88;;;-139.68;86.95
10940;BME280;5522;42.696;23.494;2024-02-26T09:05:49;53873.91;;;-139.68;83.08
10940;BME280;5522;42.696;23.494;2024-02-26T09:08:16;53879.94;;;-139.68;81.78
10940;BME280;5522;42.696;23.494;2024-02-26T09:10:43;53900.06;;;-139.68;80.64
10940;BME280;5522;42.696;23.494;2024-02-26T09:13:11;53888.00;;;-139.68;82.31
10940;BME280;5522;42.696;23.494;2024-02-26T09:15:37;53879.94;;;-139.68;82.96
10940;BME280;5522;42.696;23.494;2024-02-26T09:18:05;53873.91;;;-139.68;82.71
10940;BME280;5522;42.696;23.494;2024-02-26T09:20:31;53879.94;;;-139.68;84.55
10940;BME280;5522;42.696;23.494;2024-02-26T09:22:58;53908.09;;;-139.68;84.59
10940;BME280;5522;42.696;23.494;2024-02-26T09:25:25;53843.75;;;-139.68;83.29
10940;BME280;5522;42.696;23.494;2024-02-26T09:27:52;53853.81;;;-139.68;78.21
10940;BME280;5522;42.696;23.494;2024-02-26T09:30:20;53855.81;;;-139.68;78.17
10940;BME280;5522;42.696;23.494;2024-02-26T09:32:47;53883.97;;;-139.68;69.29
10940;BME280;5522;42.696;23.494;2024-02-26T09:35:14;53892.00;;;-139.68;68.95
10940;BME280;5522;42.696;23.494;2024-02-26T09:37:41;53888.00;;;-139.68;73.72
10940;BME280;5522;42.696;23.494;2024-02-26T09:40:10;53888.00;;;-139.68;73.22
10940;BME280;5522;42.696;23.494;2024-02-26T09:42:41;53875.94;;;-139.68;74.60
10940;BME280;5522;42.696;23.494;2024-02-26T09:45:11;53851.81;;;-139.68;74.82
10940;BME280;5522;42.696;23.494;2024-02-26T09:47:41;53912.13;;;-139.68;74.73
10940;BME280;5522;42.696;23.494;2024-02-26T09:50:09;53831.69;;;-139.68;75.41
10940;BME280;5522;42.696;23.494;2024-02-26T09:52:38;53855.81;;;-139.68;76.90
10940;BME280;5522;42.696;23.494;2024-02-26T09:55:07;53875.94;;;-139.68;81.75
10940;BME280;5522;42.696;23.494;2024-02-26T09:57:34;53855.81;;;-139.68;80.59
10940;BME280;5522;42.696;23.494;2024-02-26T10:00:03;53900.06;;;-139.68;78.96
10940;BME280;5522;42.696;23.494;2024-02-26T10:02:33;53851.81;;;-139.68;79.03
10940;BME280;5522;42.696;23.494;2024-02-26T10:05:04;53863.88;;;-139.68;76.63
10940;BME280;5522;42.696;23.494;2024-02-26T10:07:34;53825.66;;;-139.68;77.22
10940;BME280;5522;42.696;23.494;2024-02-26T10:10:02;53871.91;;;-139.68;74.89
10940;BME280;5522;42.696;23.494;2024-02-26T10:12:30;53902.06;;;-139.68;74.78
10940;BME280;5522;42.696;23.494;2024-02-26T10:14:57;53855.81;;;-139.68;76.21
10940;BME280;5522;42.696;23.494;2024-02-26T10:17:24;53912.13;;;-139.68;70.05
10940;BME280;5522;42.696;23.494;2024-02-26T10:19:52;53837.72;;;-139.68;66.11
10940;BME280;5522;42.696;23.494;2024-02-26T10:22:23;53888.00;;;-139.68;67.95
10940;BME280;5522;42.696;23.494;2024-02-26T10:24:50;53892.00;;;-139.68;69.97
10940;BME280;5522;42.696;23.494;2024-02-26T10:27:16;53892.00;;;-139.68;69.50
10940;BME280;5522;42.696;23.494;2024-02-26T10:29:45;53859.84;;;-139.68;65.13
10940;BME280;5522;42.696;23.494;2024-02-26T10:32:12;53877.94;;;-139.68;65.43
10940;BME280;5522;42.696;23.494;2024-02-26T10:34:40;53890.00;;;-139.68;65.81
10940;BME280;5522;42.696;23.494;2024-02-26T10:37:07;53920.16;;;-139.68;67.78
10940;BME280;5522;42.696;23.494;2024-02-26T10:39:36;53890.00;;;-139.68;66.79
10940;BME280;5522;42.696;23.494;2024-02-26T10:42:03;53863.88;;;-139.68;62.79
10940;BME280;5522;42.696;23.494;2024-02-26T10:44:35;53885.97;;;-139.68;65.83
10940;BME280;5522;42.696;23.494;2024-02-26T10:47:01;53835.72;;;-139.68;65.54
10940;BME280;5522;42.696;23.494;2024-02-26T10:49:28;53853.81;;;-139.68;65.37
10940;BME280;5522;42.696;23.494;2024-02-26T10:51:56;53867.88;;;-139.68;69.06
10940;BME280;5522;42.696;23.494;2024-02-26T10:54:25;53875.94;;;-139.68;66.65
10940;BME280;5522;42.696;23.494;2024-02-26T10:56:56;53869.91;;;-139.68;67.52
10940;BME280;5522;42.696;23.494;2024-02-26T10:59:23;53845.78;;;-139.68;65.51
10940;BME280;5522;42.696;23.494;2024-02-26T11:01:50;53888.00;;;-139.68;67.19
10940;BME280;5522;42.696;23.494;2024-02-26T11:04:18;53855.81;;;-139.68;67.90
10940;BME280;5522;42.696;23.494;2024-02-26T11:06:46;53859.84;;;-139.68;70.17
10940;BME280;5522;42.696;23.494;2024-02-26T11:09:14;53881.97;;;-139.68;65.43
10940;BME280;5522;42.696;23.494;2024-02-26T11:11:42;53861.84;;;-139.68;64.17
10940;BME280;5522;42.696;23.494;2024-02-26T11:14:11;53873.91;;;-139.68;64.28
10940;BME280;5522;42.696;23.494;2024-02-26T11:16:39;53843.75;;;-139.68;58.40
10940;BME280;5522;42.696;23.494;2024-02-26T11:19:08;53892.00;;;-139.68;56.26
10940;BME280;5522;42.696;23.494;2024-02-26T11:21:36;53883.97;;;-139.68;53.33
10940;BME280;5522;42.696;23.494;2024-02-26T11:24:07;53859.84;;;-139.68;56.32
10940;BME280;5522;42.696;23.494;2024-02-26T11:26:38;53839.75;;;-139.68;57.31
10940;BME280;5522;42.696;23.494;2024-02-26T11:29:08;53847.78;;;-139.68;54.39
10940;BME280;5522;42.696;23.494;2024-02-26T11:31:38;53871.91;;;-139.68;53.75
10940;BME280;5522;42.696;23.494;2024-02-26T11:34:06;53896.03;;;-139.68;53.98
10940;BME280;5522;42.696;23.494;2024-02-26T11:36:34;53865.88;;;-139.68;54.71
10940;BME280;5522;42.696;23.494;2024-02-26T11:39:01;53843.75;;;-139.68;55.32
10940;BME280;5522;42.696;23.494;2024-02-26T11:41:28;53837.72;;;-139.68;53.14
10940;BME280;5522;42.696;23.494;2024-02-26T11:43:58;53871.91;;;-139.68;53.01
10940;BME280;5522;42.696;23.494;2024-02-26T11:46:27;53843.75;;;-139.68;53.29
10940;BME280;5522;42.696;23.494;2024-02-26T11:48:56;53879.94;;;-139.68;53.42
10940;BME280;5522;42.696;23.494;2024-02-26T11:51:25;53894.03;;;-139.68;53.70
10940;BME280;5522;42.696;23.494;2024-02-26T11:53:53;53894.03;;;-139.68;53.78
10940;BME280;5522;42.696;23.494;2024-02-26T11:56:25;53879.94;;;-139.68;55.14
10940;BME280;5522;42.696;23.494;2024-02-26T11:58:57;53849.78;;;-139.68;54.89
10940;BME280;5522;42.696;23.494;2024-02-26T12:01:40;53857.84;;;-139.68;55.24
10940;BME280;5522;42.696;23.494;2024-02-26T12:04:12;53885.97;;;-139.68;55.86
10940;BME280;5522;42.696;23.494;2024-02-26T12:06:45;53914.13;;;-139.68;55.68
10940;BME280;5522;42.696;23.494;2024-02-26T12:09:13;53881.97;;;-139.68;55.99
10940;BME280;5522;42.696;23.494;2024-02-26T12:11:41;53879.94;;;-139.68;56.16
10940;BME280;5522;42.696;23.494;2024-02-26T12:14:09;53863.88;;;-139.68;55.07
10940;BME280;5522;42.696;23.494;2024-02-26T12:16:37;53867.88;;;-139.68;55.85
10940;BME280;5522;42.696;23.494;2024-02-26T12:19:05;53883.97;;;-139.68;58.20
10940;BME280;5522;42.696;23.494;2024-02-26T12:21:36;53859.84;;;-139.68;57.07
10940;BME280;5522;42.696;23.494;2024-02-26T12:24:13;53869.91;;;-139.68;59.08
10940;BME280;5522;42.696;23.494;2024-02-26T12:26:41;53881.97;;;-139.68;56.67
10940;BME280;5522;42.696;23.494;2024-02-26T12:29:08;53898.03;;;-139.68;55.57
10940;BME280;5522;42.696;23.494;2024-02-26T12:31:37;53871.91;;;-139.68;55.43
10940;BME280;5522;42.696;23.494;2024-02-26T12:34:04;53892.00;;;-139.68;54.91
10940;BME280;5522;42.696;23.494;2024-02-26T12:36:32;53853.81;;;-139.68;53.43
10940;BME280;5522;42.696;23.494;2024-02-26T12:39:01;53898.03;;;-139.68;54.79
10940;BME280;5522;42.696;23.494;2024-02-26T12:41:31;53857.84;;;-139.68;52.56